Terminal Aerodrome Forecast
Issued by NWS

Home | Current Version | Previous Version | Text Only | Print | Product List | Glossary On
Versions: 1 2 3 4 5 6 7 8 9 10 11 12
000
FTUS43 KIND 252338
TAFHUF
TAF
KHUF 252338Z 2600/2624 19011KT P6SM SCT035 BKN100
     FM260500 19004KT P6SM BKN080
     FM260900 20004KT 3SM BR SCT080
     FM261330 21008KT P6SM SCT040 SCT080
     FM261900 20009KT P6SM SCT025 BKN040=

USA.gov is the U.S. government's official web portal to all federal, state and local government web resources and services.